createdAt,value
2022-08-28T00:03:01.274Z,8.77
2022-08-28T00:08:05.371Z,9.25
2022-08-28T00:13:09.304Z,8.07
2022-08-28T00:18:12.349Z,7.90
2022-08-28T00:23:16.650Z,8.25
2022-08-28T00:28:23.585Z,7.85
2022-08-28T00:33:33.646Z,7.75
2022-08-28T00:38:37.498Z,8.73
2022-08-28T00:44:08.806Z,7.90
2022-08-28T00:49:12.200Z,7.47
2022-08-28T00:54:16.142Z,8.40
2022-08-28T00:59:21.827Z,8.73
2022-08-28T01:04:26.901Z,8.18
2022-08-28T01:09:32.759Z,8.95
2022-08-28T01:14:38.506Z,7.75
2022-08-28T01:19:45.200Z,7.90
2022-08-28T01:24:50.463Z,7.97
2022-08-28T01:29:53.931Z,7.40
2022-08-28T01:34:56.702Z,7.85
2022-08-28T01:40:01.373Z,6.87
2022-08-28T01:45:04.420Z,7.53
2022-08-28T01:50:09.559Z,6.65
2022-08-28T01:55:14.068Z,7.20
2022-08-28T02:00:18.994Z,6.85
2022-08-28T02:05:21.623Z,6.82
2022-08-28T02:10:27.514Z,7.07
2022-08-28T02:15:32.552Z,6.90
2022-08-28T02:20:35.549Z,6.50
2022-08-28T02:25:39.513Z,7.93
2022-08-28T02:30:42.304Z,7.72
2022-08-28T02:35:44.912Z,7.60
2022-08-28T02:40:48.880Z,7.72
2022-08-28T02:45:51.484Z,7.18
2022-08-28T02:50:58.281Z,7.17
2022-08-28T02:56:02.962Z,6.72
2022-08-28T03:01:09.254Z,8.02
2022-08-28T03:06:13.954Z,8.25
2022-08-28T03:11:17.851Z,7.03
2022-08-28T03:16:20.520Z,6.88
2022-08-28T03:21:23.081Z,7.70
2022-08-28T03:26:26.962Z,7.38
2022-08-28T03:31:33.708Z,8.40
2022-08-28T03:36:36.663Z,8.52
2022-08-28T03:41:40.924Z,9.05
2022-08-28T03:46:43.507Z,10.07
2022-08-28T03:51:46.050Z,9.45
2022-08-28T03:56:49.946Z,10.43
2022-08-28T04:01:52.538Z,10.75
2022-08-28T04:06:55.146Z,10.60
2022-08-28T04:11:59.014Z,10.77
2022-08-28T04:17:01.770Z,11.38
2022-08-28T04:22:04.489Z,10.80
2022-08-28T04:27:08.373Z,9.90
2022-08-28T04:32:10.929Z,10.13
2022-08-28T04:37:13.524Z,12.95
2022-08-28T04:42:17.630Z,12.52
2022-08-28T04:47:21.418Z,12.60
2022-08-28T04:52:23.971Z,15.25
2022-08-28T04:57:27.841Z,13.98
2022-08-28T05:02:30.424Z,14.02
2022-08-28T05:07:33.067Z,12.63
2022-08-28T05:12:37.817Z,13.95
2022-08-28T05:17:40.765Z,13.18
2022-08-28T05:22:43.291Z,12.68
2022-08-28T05:27:47.603Z,12.75
2022-08-28T05:32:50.163Z,12.52
2022-08-28T05:37:53.448Z,13.48
2022-08-28T05:42:57.303Z,12.60
2022-08-28T05:47:59.800Z,12.60
2022-08-28T05:53:02.484Z,11.18
2022-08-28T05:58:20.297Z,10.37
2022-08-28T06:03:23.029Z,9.95
2022-08-28T06:08:25.571Z,9.80
2022-08-28T06:13:30.372Z,9.73
2022-08-28T06:18:33.038Z,7.78
2022-08-28T06:23:36.745Z,8.10
2022-08-28T06:28:40.636Z,6.87
2022-08-28T06:33:43.391Z,7.20
2022-08-28T06:38:46.818Z,6.07
2022-08-28T06:43:50.907Z,4.20
2022-08-28T06:48:53.737Z,3.58
2022-08-28T06:59:01.914Z,2.85
2022-08-28T07:04:06.579Z,2.50
2022-08-28T07:09:11.062Z,2.33
2022-08-28T07:14:15.029Z,1.88
2022-08-28T07:19:17.548Z,2.63
2022-08-28T07:24:20.158Z,2.22
2022-08-28T07:39:30.249Z,2.10
2022-08-28T07:44:54.567Z,2.00
2022-08-28T07:49:57.696Z,1.80
2022-08-28T07:55:00.695Z,2.20
2022-08-28T08:00:06.060Z,2.17
2022-08-28T08:05:10.730Z,1.80
2022-08-28T08:10:20.547Z,1.73
2022-08-28T08:15:28.318Z,2.10
2022-08-28T08:20:33.290Z,1.98
2022-08-28T08:25:35.869Z,1.52
2022-08-28T08:30:39.730Z,1.88
2022-08-28T08:35:42.823Z,1.80
2022-08-28T08:40:45.558Z,2.10
2022-08-28T08:45:52.229Z,1.58
2022-08-28T08:50:55.347Z,1.73
2022-08-28T08:56:00.003Z,2.10
2022-08-28T09:01:13.219Z,1.80
2022-08-28T09:06:22.677Z,1.65
2022-08-28T09:11:36.206Z,1.35
2022-08-28T09:16:43.326Z,1.60
2022-08-28T09:21:47.501Z,1.40
2022-08-28T09:26:56.252Z,1.58
2022-08-28T09:32:19.228Z,1.40
2022-08-28T09:37:27.081Z,1.90
2022-08-28T09:42:47.338Z,1.38
2022-08-28T09:47:53.500Z,1.83
2022-08-28T09:53:00.282Z,1.90
2022-08-28T09:58:03.843Z,1.50
2022-08-28T10:03:16.294Z,1.60
2022-08-28T10:13:32.437Z,1.45
2022-08-28T10:18:40.917Z,1.45
2022-08-28T10:24:03.026Z,1.42
2022-08-28T10:29:19.909Z,1.43
2022-08-28T10:34:35.363Z,1.48
2022-08-28T10:39:48.519Z,1.70
2022-08-28T10:44:57.683Z,1.45
2022-08-28T10:50:12.401Z,1.42
2022-08-28T10:55:22.555Z,1.52
2022-08-28T11:00:27.365Z,1.38
2022-08-28T11:05:36.488Z,2.55
2022-08-28T11:10:48.447Z,3.42
2022-08-28T11:15:54.466Z,4.50
2022-08-28T11:21:08.887Z,8.32
2022-08-28T11:26:15.573Z,1.67
2022-08-28T11:31:31.947Z,1.45
2022-08-28T11:37:05.972Z,2.20
2022-08-28T11:42:35.003Z,1.67
2022-08-28T11:47:49.084Z,1.67
2022-08-28T11:53:35.012Z,1.45
2022-08-28T11:58:45.529Z,1.88
2022-08-28T12:03:57.656Z,2.10
2022-08-28T12:09:05.543Z,2.40
2022-08-28T12:14:08.385Z,1.75
2022-08-28T12:19:11.355Z,2.00
2022-08-28T12:24:22.369Z,2.08
2022-08-28T12:29:33.448Z,2.05
2022-08-28T12:34:44.004Z,2.42
2022-08-28T12:39:48.134Z,2.03
2022-08-28T12:44:51.755Z,1.98
2022-08-28T12:49:54.544Z,2.03
2022-08-28T12:54:58.839Z,1.90
2022-08-28T13:00:11.032Z,1.80
2022-08-28T13:05:28.266Z,1.80
2022-08-28T13:10:36.009Z,1.65
2022-08-28T13:15:52.153Z,1.80
2022-08-28T13:21:12.890Z,1.67
2022-08-28T13:26:26.257Z,1.95
2022-08-28T13:31:33.164Z,1.80
2022-08-28T13:36:48.101Z,1.95
2022-08-28T13:41:54.967Z,1.98
2022-08-28T13:46:58.519Z,1.98
2022-08-28T13:52:03.182Z,1.65
2022-08-28T13:57:08.055Z,1.85
2022-08-28T14:02:32.608Z,1.90
2022-08-28T14:07:35.266Z,1.73
2022-08-28T14:12:41.456Z,2.00
2022-08-28T14:17:44.709Z,1.85
2022-08-28T14:22:47.234Z,1.73
2022-08-28T14:32:55.650Z,1.75
2022-08-28T14:43:01.909Z,2.08
2022-08-28T14:48:04.575Z,2.42
2022-08-28T14:53:07.420Z,2.13
2022-08-28T14:58:11.626Z,1.50
2022-08-28T15:03:14.743Z,1.80
2022-08-28T15:08:18.502Z,2.00
2022-08-28T15:13:22.576Z,2.50
2022-08-28T15:18:25.187Z,2.47
2022-08-28T15:23:28.403Z,2.33
2022-08-28T15:28:32.778Z,1.95
2022-08-28T15:33:35.378Z,2.20
2022-08-28T15:38:52.130Z,1.77
2022-08-28T15:44:00.017Z,1.80
2022-08-28T15:49:03.562Z,1.83
2022-08-28T15:54:06.580Z,1.88
2022-08-28T15:59:10.594Z,1.80
2022-08-28T16:04:13.834Z,1.70
2022-08-28T16:09:16.593Z,1.73
2022-08-28T16:14:21.196Z,1.67
2022-08-28T16:19:23.882Z,1.58
2022-08-28T16:24:26.450Z,2.08
2022-08-28T16:29:30.332Z,1.38
2022-08-28T16:34:33.480Z,1.40
2022-08-28T16:39:37.029Z,1.70
2022-08-28T16:44:40.880Z,1.88
2022-08-28T16:49:44.446Z,1.38
2022-08-28T16:54:47.461Z,1.42
2022-08-28T16:59:53.501Z,1.80
2022-08-28T17:05:00.261Z,1.10
2022-08-28T17:10:02.991Z,1.25
2022-08-28T17:15:08.449Z,1.40
2022-08-28T17:20:34.515Z,1.85
2022-08-28T17:25:38.086Z,1.45
2022-08-28T17:30:42.037Z,1.05
2022-08-28T17:35:45.734Z,1.13
2022-08-28T17:40:53.242Z,1.77
2022-08-28T17:45:57.113Z,1.55
2022-08-28T17:51:01.743Z,1.40
2022-08-28T17:56:05.697Z,1.17
2022-08-28T18:01:09.571Z,1.65
2022-08-28T18:06:12.115Z,1.73
2022-08-28T18:11:15.859Z,1.58
2022-08-28T18:16:19.819Z,1.50
2022-08-28T18:21:22.466Z,1.63
2022-08-28T18:26:25.239Z,1.50
2022-08-28T18:31:29.273Z,1.42
2022-08-28T18:36:32.007Z,1.63
2022-08-28T18:41:44.251Z,1.73
2022-08-28T18:46:48.778Z,3.27
2022-08-28T18:51:51.371Z,1.80
2022-08-28T18:56:59.617Z,1.65
2022-08-28T19:02:08.690Z,1.38
2022-08-28T19:07:11.374Z,1.50
2022-08-28T19:12:14.250Z,1.40
2022-08-28T19:17:21.102Z,1.58
2022-08-28T19:22:24.356Z,2.05
2022-08-28T19:27:31.047Z,1.95
2022-08-28T19:32:35.258Z,1.83
2022-08-28T19:37:42.167Z,2.05
2022-08-28T19:42:45.696Z,1.55
2022-08-28T19:47:49.927Z,1.75
2022-08-28T19:52:52.467Z,1.83
2022-08-28T19:57:55.428Z,2.10
2022-08-28T20:03:00.298Z,2.67
2022-08-28T20:08:03.183Z,2.10
2022-08-28T20:13:06.774Z,1.75
2022-08-28T20:18:12.180Z,2.05
2022-08-28T20:23:15.222Z,1.67
2022-08-28T20:28:18.791Z,2.00
2022-08-28T20:33:22.711Z,2.20
2022-08-28T20:38:25.476Z,2.35
2022-08-28T20:43:28.595Z,1.90
2022-08-28T20:48:33.296Z,2.22
2022-08-28T20:53:38.083Z,3.08
2022-08-28T20:58:40.698Z,2.30
2022-08-28T21:03:44.551Z,1.90
2022-08-28T21:08:48.984Z,2.25
2022-08-28T21:13:51.834Z,2.15
2022-08-28T21:19:14.601Z,2.65
2022-08-28T21:24:18.398Z,1.87
2022-08-28T21:29:22.777Z,2.38
2022-08-28T21:34:26.775Z,2.35
2022-08-28T21:39:29.414Z,2.42
2022-08-28T21:44:32.125Z,2.80
2022-08-28T21:49:36.013Z,3.10
2022-08-28T21:54:40.895Z,3.28
2022-08-28T21:59:43.795Z,3.10
2022-08-28T22:04:48.981Z,2.97
2022-08-28T22:09:51.846Z,2.95
2022-08-28T22:14:54.387Z,2.70
2022-08-28T22:19:58.289Z,3.50
2022-08-28T22:25:00.883Z,2.90
2022-08-28T22:30:03.501Z,3.60
2022-08-28T22:35:10.507Z,3.83
2022-08-28T22:40:13.918Z,3.53
2022-08-28T22:50:21.363Z,3.42
2022-08-28T22:55:24.515Z,3.78
2022-08-28T23:00:30.600Z,3.83
2022-08-28T23:05:34.831Z,4.20
2022-08-28T23:10:58.137Z,3.90
2022-08-28T23:16:00.181Z,4.70
2022-08-28T23:21:08.151Z,4.07
2022-08-28T23:26:12.291Z,4.43
2022-08-28T23:31:14.983Z,4.22
2022-08-28T23:36:18.915Z,5.10
2022-08-28T23:41:21.522Z,5.32
2022-08-28T23:46:24.693Z,4.97
2022-08-28T23:51:28.767Z,4.97
2022-08-28T23:56:31.353Z,5.05
